createdAt,value
2023-03-10T00:01:18.086Z,11.20
2023-03-10T00:03:45.662Z,11.20
2023-03-10T00:06:14.758Z,11.20
2023-03-10T00:08:42.420Z,11.20
2023-03-10T00:11:10.309Z,11.20
2023-03-10T00:13:37.827Z,11.20
2023-03-10T00:16:05.616Z,11.20
2023-03-10T00:18:32.718Z,11.20
2023-03-10T00:20:59.882Z,11.20
2023-03-10T00:23:27.160Z,11.20
2023-03-10T00:25:59.480Z,11.20
2023-03-10T00:28:27.561Z,11.20
2023-03-10T00:31:10.529Z,11.20
2023-03-10T00:33:38.220Z,11.20
2023-03-10T00:36:12.408Z,11.10
2023-03-10T00:38:40.585Z,11.10
2023-03-10T00:41:10.983Z,11.10
2023-03-10T00:43:39.202Z,11.00
2023-03-10T00:46:07.003Z,11.00
2023-03-10T00:48:34.457Z,11.00
2023-03-10T00:51:02.430Z,10.90
2023-03-10T00:53:29.748Z,10.90
2023-03-10T00:56:19.974Z,10.90
2023-03-10T00:58:50.055Z,10.80
2023-03-10T01:01:23.878Z,10.80
2023-03-10T01:03:53.245Z,10.70
2023-03-10T01:06:21.146Z,10.70
2023-03-10T01:08:48.882Z,10.60
2023-03-10T01:11:18.205Z,10.60
2023-03-10T01:13:45.460Z,10.60
2023-03-10T01:16:12.534Z,10.60
2023-03-10T01:18:40.894Z,10.50
2023-03-10T01:21:11.374Z,10.50
2023-03-10T01:23:38.497Z,10.50
2023-03-10T01:26:05.429Z,10.50
2023-03-10T01:28:32.556Z,10.40
2023-03-10T01:30:59.572Z,10.40
2023-03-10T01:33:26.694Z,10.40
2023-03-10T01:35:53.595Z,10.40
2023-03-10T01:38:20.658Z,10.30
2023-03-10T01:40:50.001Z,10.30
2023-03-10T01:43:27.335Z,10.30
2023-03-10T01:45:54.322Z,10.30
2023-03-10T01:48:23.686Z,10.20
2023-03-10T01:50:56.172Z,10.20
2023-03-10T01:53:25.636Z,10.10
2023-03-10T01:55:57.123Z,10.10
2023-03-10T01:58:29.604Z,10.10
2023-03-10T02:00:56.751Z,10.00
2023-03-10T02:03:34.967Z,10.00
2023-03-10T02:06:06.156Z,10.00
2023-03-10T02:08:44.303Z,9.90
2023-03-10T02:11:15.310Z,9.90
2023-03-10T02:13:43.178Z,9.90
2023-03-10T02:16:10.838Z,9.80
2023-03-10T02:18:37.841Z,9.70
2023-03-10T02:21:10.620Z,9.60
2023-03-10T02:23:51.264Z,9.50
2023-03-10T02:26:47.874Z,9.50
2023-03-10T02:29:23.879Z,9.50
2023-03-10T02:31:52.454Z,9.40
2023-03-10T02:34:20.178Z,9.40
2023-03-10T02:36:48.959Z,9.50
2023-03-10T02:39:15.861Z,9.40
2023-03-10T02:41:45.415Z,9.40
2023-03-10T02:44:21.902Z,9.40
2023-03-10T02:46:49.212Z,9.50
2023-03-10T02:49:18.821Z,9.50
2023-03-10T02:51:48.215Z,9.40
2023-03-10T02:54:18.014Z,9.40
2023-03-10T02:56:45.573Z,9.40
2023-03-10T02:59:13.762Z,9.40
2023-03-10T03:01:46.257Z,9.40
2023-03-10T03:04:13.827Z,9.40
2023-03-10T03:06:41.250Z,9.50
2023-03-10T03:09:09.106Z,9.50
2023-03-10T03:11:36.386Z,9.40
2023-03-10T03:14:05.665Z,9.50
2023-03-10T03:16:32.741Z,9.40
2023-03-10T03:19:03.877Z,9.40
2023-03-10T03:21:32.549Z,9.30
2023-03-10T03:23:59.832Z,9.20
2023-03-10T03:26:27.661Z,9.10
2023-03-10T03:29:04.305Z,9.10
2023-03-10T03:31:35.058Z,9.10
2023-03-10T03:34:10.700Z,9.10
2023-03-10T03:36:38.399Z,9.10
2023-03-10T03:39:07.319Z,9.10
2023-03-10T03:41:36.096Z,9.10
2023-03-10T03:44:05.174Z,9.00
2023-03-10T03:46:34.788Z,9.00
2023-03-10T03:49:02.101Z,8.90
2023-03-10T03:51:30.753Z,8.90
2023-03-10T03:53:59.035Z,8.90
2023-03-10T03:56:26.298Z,8.90
2023-03-10T03:58:53.311Z,8.90
2023-03-10T04:01:20.558Z,8.80
2023-03-10T04:03:52.060Z,8.80
2023-03-10T04:06:19.174Z,8.80
2023-03-10T04:08:50.439Z,8.80
2023-03-10T04:11:18.265Z,8.70
2023-03-10T04:13:47.509Z,8.70
2023-03-10T04:16:15.555Z,8.70
2023-03-10T04:18:45.087Z,8.70
2023-03-10T04:21:14.771Z,8.70
2023-03-10T04:23:42.387Z,8.70
2023-03-10T04:26:12.366Z,8.60
2023-03-10T04:28:40.960Z,8.60
2023-03-10T04:31:17.421Z,8.50
2023-03-10T04:33:46.758Z,8.50
2023-03-10T04:36:14.125Z,8.40
2023-03-10T04:38:42.575Z,8.40
2023-03-10T04:41:09.788Z,8.40
2023-03-10T04:43:42.934Z,8.40
2023-03-10T04:46:11.863Z,8.30
2023-03-10T04:48:39.451Z,8.40
2023-03-10T04:51:09.323Z,8.40
2023-03-10T04:53:41.602Z,8.40
2023-03-10T04:56:11.266Z,8.40
2023-03-10T04:58:39.712Z,8.40
2023-03-10T05:01:14.609Z,8.40
2023-03-10T05:03:46.790Z,8.40
2023-03-10T05:06:19.992Z,8.40
2023-03-10T05:09:04.888Z,8.40
2023-03-10T05:11:34.549Z,8.40
2023-03-10T05:14:03.434Z,8.40
2023-03-10T05:16:30.955Z,8.50
2023-03-10T05:18:58.162Z,8.40
2023-03-10T05:21:27.827Z,8.40
2023-03-10T05:23:56.813Z,8.40
2023-03-10T05:26:25.019Z,8.40
2023-03-10T05:28:52.249Z,8.40
2023-03-10T05:31:26.837Z,8.40
2023-03-10T05:34:10.844Z,8.40
2023-03-10T05:36:38.023Z,8.40
2023-03-10T05:39:07.577Z,8.30
2023-03-10T05:41:39.421Z,8.30
2023-03-10T05:44:08.375Z,8.30
2023-03-10T05:46:37.159Z,8.30
2023-03-10T05:49:05.629Z,8.30
2023-03-10T05:51:33.389Z,8.30
2023-03-10T05:54:02.587Z,8.30
2023-03-10T05:56:31.902Z,8.30
2023-03-10T05:59:01.653Z,8.40
2023-03-10T06:01:31.280Z,8.40
2023-03-10T06:03:58.882Z,8.50
2023-03-10T06:06:25.788Z,8.50
2023-03-10T06:08:52.826Z,8.60
2023-03-10T06:11:19.924Z,8.70
2023-03-10T06:13:46.887Z,8.70
2023-03-10T06:16:13.974Z,8.70
2023-03-10T06:18:41.554Z,8.80
2023-03-10T06:21:12.051Z,8.80
2023-03-10T06:23:39.601Z,8.90
2023-03-10T06:26:09.915Z,8.90
2023-03-10T06:28:39.098Z,8.90
2023-03-10T06:31:09.792Z,8.90
2023-03-10T06:33:37.092Z,9.00
2023-03-10T06:36:04.651Z,9.00
2023-03-10T06:38:32.010Z,9.10
2023-03-10T06:40:58.977Z,9.10
2023-03-10T06:43:26.296Z,9.20
2023-03-10T06:45:53.337Z,9.30
2023-03-10T06:48:20.588Z,9.40
2023-03-10T06:50:49.595Z,9.50
2023-03-10T06:53:21.082Z,9.60
2023-03-10T06:56:11.416Z,9.70
2023-03-10T06:58:38.968Z,9.90
2023-03-10T07:01:10.552Z,10.00
2023-03-10T07:03:37.617Z,10.00
2023-03-10T07:06:05.797Z,10.10
2023-03-10T07:08:32.823Z,10.20
2023-03-10T07:10:59.783Z,10.30
2023-03-10T07:13:26.894Z,10.40
2023-03-10T07:15:53.832Z,10.40
2023-03-10T07:18:20.952Z,10.50
2023-03-10T07:20:48.682Z,10.50
2023-03-10T07:23:16.161Z,10.60
2023-03-10T07:25:43.233Z,10.70
2023-03-10T07:28:10.733Z,10.80
2023-03-10T07:30:39.895Z,10.80
2023-03-10T07:33:06.998Z,10.90
2023-03-10T07:35:36.697Z,10.90
2023-03-10T07:38:04.698Z,11.00
2023-03-10T07:40:31.745Z,11.10
2023-03-10T07:42:59.340Z,11.10
2023-03-10T07:45:28.298Z,11.20
2023-03-10T07:47:55.499Z,11.20
2023-03-10T07:50:22.810Z,11.30
2023-03-10T07:52:50.269Z,11.40
2023-03-10T07:55:18.234Z,11.40
2023-03-10T07:57:45.194Z,11.50
2023-03-10T08:00:13.250Z,11.60
2023-03-10T08:02:41.103Z,11.80
2023-03-10T08:05:09.897Z,12.00
2023-03-10T08:07:38.020Z,12.10
2023-03-10T08:10:05.749Z,12.20
2023-03-10T08:12:33.609Z,12.30
2023-03-10T08:15:00.652Z,12.40
2023-03-10T08:17:33.524Z,12.50
2023-03-10T08:20:01.049Z,12.60
2023-03-10T08:22:28.858Z,12.70
2023-03-10T08:24:56.390Z,12.80
2023-03-10T08:27:23.961Z,13.00
2023-03-10T08:29:51.000Z,13.20
2023-03-10T08:32:19.967Z,13.40
2023-03-10T08:34:47.311Z,13.50
2023-03-10T08:37:14.661Z,13.60
2023-03-10T08:39:41.731Z,13.60
2023-03-10T08:42:12.065Z,13.60
2023-03-10T08:44:40.083Z,13.70
2023-03-10T08:47:07.662Z,13.80
2023-03-10T08:49:34.982Z,13.90
2023-03-10T08:52:02.350Z,14.10
2023-03-10T08:54:32.256Z,14.30
2023-03-10T08:56:59.818Z,14.40
2023-03-10T08:59:27.197Z,14.50
2023-03-10T09:01:54.188Z,14.60
2023-03-10T09:04:21.244Z,14.80
2023-03-10T09:06:48.200Z,14.90
2023-03-10T09:09:15.327Z,15.00
2023-03-10T09:11:43.201Z,15.20
2023-03-10T09:14:11.696Z,15.30
2023-03-10T09:16:40.281Z,15.40
2023-03-10T09:19:08.092Z,15.50
2023-03-10T09:21:35.182Z,15.50
2023-03-10T09:24:03.023Z,15.60
2023-03-10T09:26:30.370Z,15.70
2023-03-10T09:28:57.511Z,15.80
2023-03-10T09:31:29.735Z,16.00
2023-03-10T09:33:56.893Z,16.10
2023-03-10T09:36:24.418Z,16.20
2023-03-10T09:38:51.810Z,16.30
2023-03-10T09:41:30.605Z,16.30
2023-03-10T09:44:07.786Z,16.40
2023-03-10T09:47:13.786Z,16.40
2023-03-10T09:49:46.469Z,16.50
2023-03-10T09:52:28.324Z,16.50
2023-03-10T09:55:14.383Z,16.60
2023-03-10T09:57:41.729Z,16.70
2023-03-10T10:00:20.847Z,16.80
2023-03-10T10:02:51.973Z,16.90
2023-03-10T10:05:25.093Z,17.10
2023-03-10T10:08:03.110Z,17.20
2023-03-10T10:10:37.243Z,17.30
2023-03-10T10:13:13.892Z,17.60
2023-03-10T10:15:51.226Z,17.90
2023-03-10T10:18:42.717Z,18.20
2023-03-10T10:21:12.684Z,18.40
2023-03-10T10:23:53.033Z,18.60
2023-03-10T10:26:28.476Z,18.80
2023-03-10T10:29:12.115Z,18.90
2023-03-10T10:31:39.501Z,19.10
2023-03-10T10:34:22.628Z,19.20
2023-03-10T10:36:56.358Z,19.30
2023-03-10T10:39:43.467Z,19.30
2023-03-10T10:42:14.350Z,19.40
2023-03-10T10:44:43.352Z,19.50
2023-03-10T10:47:29.128Z,19.60
2023-03-10T10:50:20.862Z,19.80
2023-03-10T10:52:50.746Z,19.90
2023-03-10T10:55:27.361Z,20.00
2023-03-10T10:57:58.797Z,20.00
2023-03-10T11:00:33.617Z,20.10
2023-03-10T11:03:01.177Z,20.20
2023-03-10T11:05:37.682Z,20.30
2023-03-10T11:08:20.043Z,20.40
2023-03-10T11:10:55.118Z,20.60
2023-03-10T11:13:45.426Z,20.60
2023-03-10T11:16:53.620Z,20.80
2023-03-10T11:19:38.408Z,20.90
2023-03-10T11:22:44.904Z,20.90
2023-03-10T11:25:23.919Z,21.00
2023-03-10T11:28:15.297Z,20.90
2023-03-10T11:30:54.180Z,20.70
2023-03-10T11:33:29.942Z,20.70
2023-03-10T11:36:08.858Z,20.70
2023-03-10T11:38:44.938Z,20.80
2023-03-10T11:41:19.942Z,20.90
2023-03-10T11:43:55.768Z,21.00
2023-03-10T11:46:31.813Z,21.00
2023-03-10T11:49:12.409Z,21.20
2023-03-10T11:51:47.692Z,21.20
2023-03-10T11:54:30.684Z,21.20
2023-03-10T11:57:03.856Z,21.20
2023-03-10T11:59:33.476Z,21.30
2023-03-10T12:02:28.243Z,21.30
2023-03-10T12:05:07.014Z,21.40
2023-03-10T12:07:40.026Z,21.40
2023-03-10T12:10:13.126Z,21.40
2023-03-10T12:12:48.749Z,21.40
2023-03-10T12:15:37.114Z,21.40
2023-03-10T12:18:06.398Z,21.40
2023-03-10T12:20:34.898Z,21.50
2023-03-10T12:23:24.976Z,21.50
2023-03-10T12:25:52.023Z,21.40
2023-03-10T12:28:24.822Z,21.40
2023-03-10T12:31:10.823Z,21.40
2023-03-10T12:33:45.725Z,21.50
2023-03-10T12:36:34.462Z,21.60
2023-03-10T12:39:24.165Z,21.70
2023-03-10T12:42:01.415Z,21.70
2023-03-10T12:44:49.539Z,21.70
2023-03-10T12:47:25.631Z,21.70
2023-03-10T12:49:58.286Z,21.60
2023-03-10T12:52:46.436Z,21.60
2023-03-10T12:55:28.957Z,21.70
2023-03-10T12:58:11.149Z,21.80
2023-03-10T13:00:48.166Z,21.80
2023-03-10T13:03:32.523Z,21.60
2023-03-10T13:06:21.022Z,21.30
2023-03-10T13:08:50.069Z,20.90
2023-03-10T13:11:19.896Z,20.60
2023-03-10T13:14:12.503Z,20.40
2023-03-10T13:16:42.184Z,20.50
2023-03-10T13:19:20.791Z,20.80
2023-03-10T13:21:51.133Z,21.00
2023-03-10T13:24:33.703Z,21.10
2023-03-10T13:27:25.147Z,21.20
2023-03-10T13:30:05.758Z,21.20
2023-03-10T13:32:33.650Z,21.00
2023-03-10T13:35:21.276Z,20.70
2023-03-10T13:38:16.197Z,20.50
2023-03-10T13:40:49.885Z,20.50
2023-03-10T13:43:34.864Z,20.50
2023-03-10T13:46:04.554Z,20.60
2023-03-10T13:48:32.830Z,20.70
2023-03-10T13:51:17.504Z,20.80
2023-03-10T13:53:45.915Z,20.90
2023-03-10T13:56:37.135Z,20.90
2023-03-10T13:59:06.909Z,20.90
2023-03-10T14:01:38.756Z,21.00
2023-03-10T14:04:08.880Z,21.00
2023-03-10T14:06:37.171Z,21.00
2023-03-10T14:09:23.621Z,21.00
2023-03-10T14:11:52.291Z,20.90
2023-03-10T14:14:40.011Z,20.90
2023-03-10T14:17:26.175Z,20.80
2023-03-10T14:19:53.404Z,20.80
2023-03-10T14:22:23.019Z,20.80
2023-03-10T14:24:50.603Z,20.80
2023-03-10T14:27:18.215Z,20.80
2023-03-10T14:29:57.278Z,20.70
2023-03-10T14:32:25.194Z,20.70
2023-03-10T14:34:53.578Z,20.60
2023-03-10T14:37:20.682Z,20.60
2023-03-10T14:39:47.673Z,20.60
2023-03-10T14:42:28.970Z,20.60
2023-03-10T14:45:05.446Z,20.70
2023-03-10T14:47:32.899Z,20.70
2023-03-10T14:50:01.420Z,20.70
2023-03-10T14:52:28.550Z,20.60
2023-03-10T14:54:56.304Z,20.60
2023-03-10T14:57:23.385Z,20.60
2023-03-10T14:59:50.509Z,20.50
2023-03-10T15:02:23.991Z,20.50
2023-03-10T15:04:51.203Z,20.40
2023-03-10T15:07:18.393Z,20.40
2023-03-10T15:09:45.659Z,20.30
2023-03-10T15:12:16.580Z,20.30
2023-03-10T15:14:46.881Z,20.30
2023-03-10T15:17:14.135Z,20.20
2023-03-10T15:19:41.224Z,20.20
2023-03-10T15:22:08.141Z,20.20
2023-03-10T15:24:35.305Z,20.10
2023-03-10T15:27:04.986Z,20.10
2023-03-10T15:29:32.174Z,20.00
2023-03-10T15:31:59.429Z,20.00
2023-03-10T15:34:26.489Z,19.90
2023-03-10T15:36:53.750Z,19.90
2023-03-10T15:39:31.166Z,19.90
2023-03-10T15:41:59.351Z,19.80
2023-03-10T15:44:26.395Z,19.70
2023-03-10T15:46:55.097Z,19.70
2023-03-10T15:49:22.310Z,19.60
2023-03-10T15:51:49.562Z,19.60
2023-03-10T15:54:16.534Z,19.50
2023-03-10T15:56:43.612Z,19.50
2023-03-10T15:59:10.939Z,19.40
2023-03-10T16:01:38.149Z,19.40
2023-03-10T16:04:06.170Z,19.30
2023-03-10T16:06:34.260Z,19.20
2023-03-10T16:09:01.383Z,19.20
2023-03-10T16:11:28.967Z,19.10
2023-03-10T16:13:55.948Z,19.10
2023-03-10T16:16:26.548Z,19.00
2023-03-10T16:18:54.045Z,18.90
2023-03-10T16:21:21.307Z,18.90
2023-03-10T16:23:48.547Z,18.80
2023-03-10T16:26:21.636Z,18.80
2023-03-10T16:28:52.635Z,18.70
2023-03-10T16:31:23.333Z,18.60
2023-03-10T16:33:51.680Z,18.60
2023-03-10T16:36:22.105Z,18.50
2023-03-10T16:38:49.882Z,18.40
2023-03-10T16:41:17.815Z,18.40
2023-03-10T16:43:46.409Z,18.30
2023-03-10T16:46:21.674Z,18.20
2023-03-10T16:48:48.978Z,18.20
2023-03-10T16:51:22.962Z,18.10
2023-03-10T16:53:51.476Z,17.90
2023-03-10T16:56:20.546Z,17.80
2023-03-10T16:58:47.656Z,17.80
2023-03-10T17:01:14.754Z,17.60
2023-03-10T17:03:41.951Z,17.50
2023-03-10T17:06:14.016Z,17.40
2023-03-10T17:08:42.282Z,17.30
2023-03-10T17:11:30.828Z,17.20
2023-03-10T17:14:00.784Z,17.10
2023-03-10T17:16:30.269Z,17.00
2023-03-10T17:18:58.962Z,16.90
2023-03-10T17:21:29.331Z,16.80
2023-03-10T17:23:56.854Z,16.70
2023-03-10T17:26:24.294Z,16.60
2023-03-10T17:28:54.044Z,16.50
2023-03-10T17:31:27.262Z,16.40
2023-03-10T17:33:55.719Z,16.40
2023-03-10T17:36:23.407Z,16.30
2023-03-10T17:38:55.169Z,16.30
2023-03-10T17:41:23.284Z,16.30
2023-03-10T17:43:50.594Z,16.30
2023-03-10T17:46:20.681Z,16.30
2023-03-10T17:48:47.933Z,16.30
2023-03-10T17:51:21.155Z,16.30
2023-03-10T17:53:48.469Z,16.30
2023-03-10T17:56:16.512Z,16.30
2023-03-10T17:58:43.914Z,16.20
2023-03-10T18:01:22.954Z,16.20
2023-03-10T18:03:50.096Z,16.20
2023-03-10T18:06:22.764Z,16.10
2023-03-10T18:08:50.794Z,16.10
2023-03-10T18:11:20.024Z,16.00
2023-03-10T18:13:50.567Z,16.00
2023-03-10T18:16:39.197Z,16.00
2023-03-10T18:19:10.432Z,16.00
2023-03-10T18:21:38.009Z,16.00
2023-03-10T18:24:05.199Z,15.90
2023-03-10T18:26:32.664Z,15.90
2023-03-10T18:29:00.160Z,15.90
2023-03-10T18:31:30.156Z,16.00
2023-03-10T18:33:57.695Z,16.00
2023-03-10T18:36:25.796Z,15.90
2023-03-10T18:38:54.046Z,15.90
2023-03-10T18:41:26.999Z,15.90
2023-03-10T18:43:54.371Z,15.90
2023-03-10T18:46:22.859Z,15.90
2023-03-10T18:48:56.045Z,15.90
2023-03-10T18:51:25.162Z,15.90
2023-03-10T18:53:52.173Z,15.90
2023-03-10T18:56:20.074Z,15.90
2023-03-10T18:58:47.113Z,16.00
2023-03-10T19:01:15.415Z,16.00
2023-03-10T19:03:45.737Z,16.00
2023-03-10T19:06:13.010Z,16.00
2023-03-10T19:08:40.057Z,15.90
2023-03-10T19:11:07.647Z,15.90
2023-03-10T19:13:35.451Z,15.90
2023-03-10T19:16:09.510Z,15.90
2023-03-10T19:18:37.715Z,15.90
2023-03-10T19:21:05.822Z,15.90
2023-03-10T19:23:35.044Z,15.90
2023-03-10T19:26:03.010Z,15.90
2023-03-10T19:28:30.226Z,15.90
2023-03-10T19:30:58.166Z,15.90
2023-03-10T19:33:25.225Z,15.90
2023-03-10T19:36:04.283Z,15.90
2023-03-10T19:38:31.728Z,15.90
2023-03-10T19:40:58.703Z,15.80
2023-03-10T19:43:25.824Z,15.80
2023-03-10T19:45:58.702Z,15.80
2023-03-10T19:48:25.777Z,15.80
2023-03-10T19:50:57.512Z,15.80
2023-03-10T19:53:26.082Z,15.80
2023-03-10T19:55:58.521Z,15.70
2023-03-10T19:58:26.403Z,15.60
2023-03-10T20:00:57.842Z,15.60
2023-03-10T20:03:30.936Z,15.50
2023-03-10T20:05:58.183Z,15.40
2023-03-10T20:08:25.192Z,15.40
2023-03-10T20:10:52.560Z,15.20
2023-03-10T20:13:19.552Z,15.20
2023-03-10T20:15:47.029Z,15.10
2023-03-10T20:18:14.816Z,15.00
2023-03-10T20:20:42.076Z,14.90
2023-03-10T20:23:10.161Z,14.90
2023-03-10T20:25:38.333Z,14.80
2023-03-10T20:28:05.798Z,14.80
2023-03-10T20:30:35.979Z,14.70
2023-03-10T20:33:04.152Z,14.60
2023-03-10T20:35:33.535Z,14.50
2023-03-10T20:38:00.949Z,14.50
2023-03-10T20:40:28.112Z,14.40
2023-03-10T20:42:59.768Z,14.40
2023-03-10T20:45:27.635Z,14.40
2023-03-10T20:47:54.644Z,14.30
2023-03-10T20:50:25.328Z,14.40
2023-03-10T20:52:52.994Z,14.40
2023-03-10T20:55:23.274Z,14.50
2023-03-10T20:57:52.402Z,14.60
2023-03-10T21:00:21.499Z,14.60
2023-03-10T21:02:52.145Z,14.60
2023-03-10T21:05:21.032Z,14.70
2023-03-10T21:07:48.188Z,14.70
2023-03-10T21:10:15.626Z,14.80
2023-03-10T21:12:43.265Z,14.80
2023-03-10T21:15:13.881Z,14.80
2023-03-10T21:17:41.758Z,14.90
2023-03-10T21:20:10.482Z,14.90
2023-03-10T21:22:39.852Z,14.90
2023-03-10T21:25:10.267Z,14.90
2023-03-10T21:27:37.321Z,14.90
2023-03-10T21:30:09.377Z,14.90
2023-03-10T21:32:37.226Z,14.90
2023-03-10T21:35:05.961Z,14.90
2023-03-10T21:37:33.103Z,14.90
2023-03-10T21:40:00.240Z,14.80
2023-03-10T21:42:27.355Z,14.80
2023-03-10T21:44:58.408Z,14.70
2023-03-10T21:47:26.030Z,14.70
2023-03-10T21:49:53.266Z,14.60
2023-03-10T21:52:20.297Z,14.60
2023-03-10T21:54:47.450Z,14.50
2023-03-10T21:57:16.713Z,14.40
2023-03-10T21:59:44.202Z,14.40
2023-03-10T22:02:24.093Z,14.30
2023-03-10T22:04:51.343Z,14.20
2023-03-10T22:07:18.374Z,14.10
2023-03-10T22:09:46.878Z,14.10
2023-03-10T22:12:13.855Z,14.10
2023-03-10T22:14:42.072Z,14.00
2023-03-10T22:17:09.641Z,14.00
2023-03-10T22:19:37.697Z,14.10
2023-03-10T22:22:05.277Z,14.10
2023-03-10T22:24:32.443Z,14.10
2023-03-10T22:26:59.963Z,14.10
2023-03-10T22:29:27.040Z,14.10
2023-03-10T22:31:56.258Z,14.10
2023-03-10T22:34:23.367Z,14.20
2023-03-10T22:36:50.307Z,14.20
2023-03-10T22:39:17.336Z,14.20
2023-03-10T22:41:44.275Z,14.20
2023-03-10T22:44:11.253Z,14.30
2023-03-10T22:46:38.863Z,14.30
2023-03-10T22:49:06.916Z,14.40
2023-03-10T22:51:33.870Z,14.40
2023-03-10T22:54:02.004Z,14.40
2023-03-10T22:56:28.863Z,14.40
2023-03-10T22:58:55.880Z,14.50
2023-03-10T23:01:23.398Z,14.40
2023-03-10T23:03:50.929Z,14.50
2023-03-10T23:06:18.943Z,14.40
2023-03-10T23:08:47.128Z,14.40
2023-03-10T23:11:15.721Z,14.40
2023-03-10T23:13:42.977Z,14.40
2023-03-10T23:16:10.093Z,14.40
2023-03-10T23:18:37.354Z,14.40
2023-03-10T23:21:04.848Z,14.40
2023-03-10T23:23:32.413Z,14.40
2023-03-10T23:25:59.343Z,14.40
2023-03-10T23:28:26.644Z,14.40
2023-03-10T23:30:54.444Z,14.40
2023-03-10T23:33:25.077Z,14.40
2023-03-10T23:35:55.076Z,14.40
2023-03-10T23:38:23.701Z,14.40
2023-03-10T23:40:51.183Z,14.40
2023-03-10T23:43:18.481Z,14.40
2023-03-10T23:45:45.812Z,14.40
2023-03-10T23:48:19.314Z,14.40
2023-03-10T23:50:48.141Z,14.40
2023-03-10T23:53:17.219Z,14.40
2023-03-10T23:55:47.976Z,14.40
2023-03-10T23:58:17.432Z,14.40
